sensor_id;sensor_type;location;lat;lon;timestamp;pressure;altitude;pressure_sealevel;temperature;humidity
14800;BME280;7491;57.750;11.970;2022-12-07T00:00:13;77333.97;;;-142.11;100.00
14800;BME280;7491;57.750;11.970;2022-12-07T00:02:40;77331.94;;;-142.11;100.00
14800;BME280;7491;57.750;11.970;2022-12-07T00:05:07;77325.81;;;-142.11;100.00
14800;BME280;7491;57.750;11.970;2022-12-07T00:07:35;77344.16;;;-142.11;100.00
14800;BME280;7491;57.750;11.970;2022-12-07T00:10:03;77336.00;;;-142.11;100.00
14800;BME280;7491;57.750;11.970;2022-12-07T00:12:29;77313.56;;;-142.11;100.00
14800;BME280;7491;57.750;11.970;2022-12-07T00:14:56;77301.34;;;-142.11;100.00
14800;BME280;7491;57.750;11.970;2022-12-07T00:17:23;77295.22;;;-142.11;100.00
14800;BME280;7491;57.750;11.970;2022-12-07T00:19:50;77303.38;;;-142.11;100.00
14800;BME280;7491;57.750;11.970;2022-12-07T00:22:16;77297.25;;;-142.11;100.00
14800;BME280;7491;57.750;11.970;2022-12-07T00:24:44;77301.34;;;-142.11;100.00
14800;BME280;7491;57.750;11.970;2022-12-07T00:27:11;77303.38;;;-142.11;100.00
14800;BME280;7491;57.750;11.970;2022-12-07T00:29:38;77299.31;;;-142.11;100.00
14800;BME280;7491;57.750;11.970;2022-12-07T00:32:05;77289.09;;;-142.11;100.00
14800;BME280;7491;57.750;11.970;2022-12-07T00:34:31;77291.16;;;-142.11;100.00
14800;BME280;7491;57.750;11.970;2022-12-07T00:36:58;77285.03;;;-142.11;100.00
14800;BME280;7491;57.750;11.970;2022-12-07T00:39:25;77285.03;;;-142.11;100.00
14800;BME280;7491;57.750;11.970;2022-12-07T00:41:53;77295.22;;;-142.11;100.00
14800;BME280;7491;57.750;11.970;2022-12-07T00:44:20;77305.41;;;-142.11;100.00
14800;BME280;7491;57.750;11.970;2022-12-07T00:46:46;77295.22;;;-142.11;100.00
14800;BME280;7491;57.750;11.970;2022-12-07T00:49:13;77307.47;;;-142.11;100.00
14800;BME280;7491;57.750;11.970;2022-12-07T00:51:40;77295.22;;;-142.11;100.00
14800;BME280;7491;57.750;11.970;2022-12-07T00:54:07;77299.31;;;-142.11;100.00
14800;BME280;7491;57.750;11.970;2022-12-07T00:56:33;77289.09;;;-142.11;100.00
14800;BME280;7491;57.750;11.970;2022-12-07T00:59:03;77285.03;;;-142.11;100.00
14800;BME280;7491;57.750;11.970;2022-12-07T01:01:31;77276.88;;;-142.11;100.00
14800;BME280;7491;57.750;11.970;2022-12-07T01:03:58;77266.66;;;-142.11;100.00
14800;BME280;7491;57.750;11.970;2022-12-07T01:06:26;77278.91;;;-142.11;100.00
14800;BME280;7491;57.750;11.970;2022-12-07T01:08:54;77291.16;;;-142.11;100.00
14800;BME280;7491;57.750;11.970;2022-12-07T01:11:22;77264.63;;;-142.11;100.00
14800;BME280;7491;57.750;11.970;2022-12-07T01:13:49;77266.66;;;-142.11;100.00
14800;BME280;7491;57.750;11.970;2022-12-07T01:16:18;77250.38;;;-142.11;100.00
14800;BME280;7491;57.750;11.970;2022-12-07T01:18:47;77234.03;;;-142.11;100.00
14800;BME280;7491;57.750;11.970;2022-12-07T01:21:17;77236.09;;;-142.11;100.00
14800;BME280;7491;57.750;11.970;2022-12-07T01:23:44;77229.97;;;-142.11;100.00
14800;BME280;7491;57.750;11.970;2022-12-07T01:26:12;77244.25;;;-142.11;100.00
14800;BME280;7491;57.750;11.970;2022-12-07T01:28:39;77236.09;;;-142.11;100.00
14800;BME280;7491;57.750;11.970;2022-12-07T01:31:09;77227.94;;;-142.11;100.00
14800;BME280;7491;57.750;11.970;2022-12-07T01:33:39;77219.78;;;-142.11;100.00
14800;BME280;7491;57.750;11.970;2022-12-07T01:36:07;77205.50;;;-142.11;100.00
14800;BME280;7491;57.750;11.970;2022-12-07T01:38:34;77197.34;;;-142.11;100.00
14800;BME280;7491;57.750;11.970;2022-12-07T01:41:01;77197.34;;;-142.11;100.00
14800;BME280;7491;57.750;11.970;2022-12-07T01:43:33;77195.31;;;-142.11;100.00
14800;BME280;7491;57.750;11.970;2022-12-07T01:46:00;77193.25;;;-142.11;100.00
14800;BME280;7491;57.750;11.970;2022-12-07T01:48:30;77185.09;;;-142.11;100.00
14800;BME280;7491;57.750;11.970;2022-12-07T01:51:05;77183.06;;;-142.11;100.00
14800;BME280;7491;57.750;11.970;2022-12-07T01:53:35;77181.03;;;-142.11;100.00
14800;BME280;7491;57.750;11.970;2022-12-07T01:56:02;77185.09;;;-142.11;100.00
14800;BME280;7491;57.750;11.970;2022-12-07T01:58:29;77185.09;;;-142.11;100.00
14800;BME280;7491;57.750;11.970;2022-12-07T02:00:56;77197.34;;;-142.11;100.00
14800;BME280;7491;57.750;11.970;2022-12-07T02:03:27;77199.38;;;-142.11;100.00
14800;BME280;7491;57.750;11.970;2022-12-07T02:05:57;77185.09;;;-142.11;100.00
14800;BME280;7491;57.750;11.970;2022-12-07T02:08:26;77174.91;;;-142.11;100.00
14800;BME280;7491;57.750;11.970;2022-12-07T02:10:54;77181.03;;;-142.11;100.00
14800;BME280;7491;57.750;11.970;2022-12-07T02:13:23;77164.72;;;-142.11;100.00
14800;BME280;7491;57.750;11.970;2022-12-07T02:16:03;77168.78;;;-142.11;100.00
14800;BME280;7491;57.750;11.970;2022-12-07T02:18:45;77158.59;;;-142.11;100.00
14800;BME280;7491;57.750;11.970;2022-12-07T02:21:20;77166.75;;;-142.11;100.00
14800;BME280;7491;57.750;11.970;2022-12-07T02:24:12;77164.72;;;-142.11;100.00
14800;BME280;7491;57.750;11.970;2022-12-07T02:27:01;77174.91;;;-142.11;100.00
14800;BME280;7491;57.750;11.970;2022-12-07T02:29:37;77148.41;;;-142.11;100.00
14800;BME280;7491;57.750;11.970;2022-12-07T02:32:09;77166.75;;;-142.11;100.00
14800;BME280;7491;57.750;11.970;2022-12-07T02:34:47;77158.59;;;-142.11;100.00
14800;BME280;7491;57.750;11.970;2022-12-07T02:37:25;77166.75;;;-142.11;100.00
14800;BME280;7491;57.750;11.970;2022-12-07T02:39:57;77150.44;;;-142.11;100.00
14800;BME280;7491;57.750;11.970;2022-12-07T02:42:30;77150.44;;;-142.11;100.00
14800;BME280;7491;57.750;11.970;2022-12-07T02:45:01;77144.31;;;-142.11;100.00
14800;BME280;7491;57.750;11.970;2022-12-07T02:47:28;77136.16;;;-142.11;100.00
14800;BME280;7491;57.750;11.970;2022-12-07T02:49:56;77134.13;;;-142.11;100.00
14800;BME280;7491;57.750;11.970;2022-12-07T02:52:23;77142.28;;;-142.11;100.00
14800;BME280;7491;57.750;11.970;2022-12-07T02:54:49;77136.16;;;-142.11;100.00
14800;BME280;7491;57.750;11.970;2022-12-07T02:57:38;77138.22;;;-142.11;100.00
14800;BME280;7491;57.750;11.970;2022-12-07T03:00:11;77136.16;;;-142.11;100.00
14800;BME280;7491;57.750;11.970;2022-12-07T03:02:48;77125.97;;;-142.11;100.00
14800;BME280;7491;57.750;11.970;2022-12-07T03:05:40;77148.41;;;-142.11;100.00
14800;BME280;7491;57.750;11.970;2022-12-07T03:08:14;77136.16;;;-142.11;100.00
14800;BME280;7491;57.750;11.970;2022-12-07T03:10:49;77121.91;;;-142.11;100.00
14800;BME280;7491;57.750;11.970;2022-12-07T03:13:22;77111.69;;;-142.11;100.00
14800;BME280;7491;57.750;11.970;2022-12-07T03:15:55;77107.63;;;-142.11;100.00
14800;BME280;7491;57.750;11.970;2022-12-07T03:18:25;77115.78;;;-142.11;100.00
14800;BME280;7491;57.750;11.970;2022-12-07T03:20:57;77101.50;;;-142.11;100.00
14800;BME280;7491;57.750;11.970;2022-12-07T03:23:25;77125.97;;;-142.11;100.00
14800;BME280;7491;57.750;11.970;2022-12-07T03:25:55;77107.63;;;-142.11;100.00
14800;BME280;7491;57.750;11.970;2022-12-07T03:28:24;77107.63;;;-142.11;100.00
14800;BME280;7491;57.750;11.970;2022-12-07T03:30:57;77105.59;;;-142.11;100.00
14800;BME280;7491;57.750;11.970;2022-12-07T03:33:29;77097.44;;;-142.11;100.00
14800;BME280;7491;57.750;11.970;2022-12-07T03:36:00;77117.81;;;-142.11;100.00
14800;BME280;7491;57.750;11.970;2022-12-07T03:38:33;77093.34;;;-142.11;100.00
14800;BME280;7491;57.750;11.970;2022-12-07T03:41:05;77091.31;;;-142.11;100.00
14800;BME280;7491;57.750;11.970;2022-12-07T03:43:33;77101.50;;;-142.11;100.00
14800;BME280;7491;57.750;11.970;2022-12-07T03:46:07;77097.44;;;-142.11;100.00
14800;BME280;7491;57.750;11.970;2022-12-07T03:48:47;77099.47;;;-142.11;100.00
14800;BME280;7491;57.750;11.970;2022-12-07T03:51:21;77089.28;;;-142.11;100.00
14800;BME280;7491;57.750;11.970;2022-12-07T03:53:53;77099.47;;;-142.11;100.00
14800;BME280;7491;57.750;11.970;2022-12-07T03:56:22;77077.03;;;-142.11;100.00
14800;BME280;7491;57.750;11.970;2022-12-07T03:58:50;77091.31;;;-142.11;100.00
14800;BME280;7491;57.750;11.970;2022-12-07T04:01:19;77087.22;;;-142.11;100.00
14800;BME280;7491;57.750;11.970;2022-12-07T04:03:45;77077.03;;;-142.11;100.00
14800;BME280;7491;57.750;11.970;2022-12-07T04:06:12;77066.84;;;-142.11;100.00
14800;BME280;7491;57.750;11.970;2022-12-07T04:08:39;77068.88;;;-142.11;100.00
14800;BME280;7491;57.750;11.970;2022-12-07T04:11:05;77070.91;;;-142.11;100.00
14800;BME280;7491;57.750;11.970;2022-12-07T04:13:32;77056.66;;;-142.11;100.00
14800;BME280;7491;57.750;11.970;2022-12-07T04:16:21;77050.53;;;-142.11;100.00
14800;BME280;7491;57.750;11.970;2022-12-07T04:18:47;77056.66;;;-142.11;100.00
14800;BME280;7491;57.750;11.970;2022-12-07T04:21:14;77056.66;;;-142.11;100.00
14800;BME280;7491;57.750;11.970;2022-12-07T04:23:41;77046.44;;;-142.11;100.00
14800;BME280;7491;57.750;11.970;2022-12-07T04:26:07;77048.50;;;-142.11;100.00
14800;BME280;7491;57.750;11.970;2022-12-07T04:28:34;77036.25;;;-142.11;100.00
14800;BME280;7491;57.750;11.970;2022-12-07T04:31:01;77030.13;;;-142.11;100.00
14800;BME280;7491;57.750;11.970;2022-12-07T04:33:29;77036.25;;;-142.11;100.00
14800;BME280;7491;57.750;11.970;2022-12-07T04:35:56;77024.03;;;-142.11;100.00
14800;BME280;7491;57.750;11.970;2022-12-07T04:38:22;77024.03;;;-142.11;100.00
14800;BME280;7491;57.750;11.970;2022-12-07T04:40:49;77017.91;;;-142.11;100.00
14800;BME280;7491;57.750;11.970;2022-12-07T04:43:16;77017.91;;;-142.11;100.00
14800;BME280;7491;57.750;11.970;2022-12-07T04:45:46;77028.09;;;-142.11;100.00
14800;BME280;7491;57.750;11.970;2022-12-07T04:48:12;77015.88;;;-142.11;100.00
14800;BME280;7491;57.750;11.970;2022-12-07T04:50:41;77015.88;;;-142.11;100.00
14800;BME280;7491;57.750;11.970;2022-12-07T04:53:07;77011.78;;;-142.11;100.00
14800;BME280;7491;57.750;11.970;2022-12-07T04:55:34;77015.88;;;-142.11;100.00
14800;BME280;7491;57.750;11.970;2022-12-07T04:58:01;77011.78;;;-142.11;100.00
14800;BME280;7491;57.750;11.970;2022-12-07T05:00:27;77015.88;;;-142.11;100.00
14800;BME280;7491;57.750;11.970;2022-12-07T05:02:54;76997.50;;;-142.11;100.00
14800;BME280;7491;57.750;11.970;2022-12-07T05:05:21;77003.63;;;-142.11;100.00
14800;BME280;7491;57.750;11.970;2022-12-07T05:07:49;76989.34;;;-142.11;100.00
14800;BME280;7491;57.750;11.970;2022-12-07T05:10:16;76999.56;;;-142.11;100.00
14800;BME280;7491;57.750;11.970;2022-12-07T05:12:43;76993.44;;;-142.11;100.00
14800;BME280;7491;57.750;11.970;2022-12-07T05:15:10;76991.41;;;-142.11;100.00
14800;BME280;7491;57.750;11.970;2022-12-07T05:17:37;76997.50;;;-142.11;100.00
14800;BME280;7491;57.750;11.970;2022-12-07T05:20:05;76995.47;;;-142.11;100.00
14800;BME280;7491;57.750;11.970;2022-12-07T05:22:32;76997.50;;;-142.11;100.00
14800;BME280;7491;57.750;11.970;2022-12-07T05:25:00;76997.50;;;-142.11;100.00
14800;BME280;7491;57.750;11.970;2022-12-07T05:27:27;76999.56;;;-142.11;100.00
14800;BME280;7491;57.750;11.970;2022-12-07T05:29:54;76987.31;;;-142.11;100.00
14800;BME280;7491;57.750;11.970;2022-12-07T05:32:20;77011.78;;;-142.11;100.00
14800;BME280;7491;57.750;11.970;2022-12-07T05:34:47;77017.91;;;-142.11;100.00
14800;BME280;7491;57.750;11.970;2022-12-07T05:37:14;77001.59;;;-142.11;100.00
14800;BME280;7491;57.750;11.970;2022-12-07T05:39:40;77001.59;;;-142.11;100.00
14800;BME280;7491;57.750;11.970;2022-12-07T05:42:10;77021.97;;;-142.11;100.00
14800;BME280;7491;57.750;11.970;2022-12-07T05:44:39;77024.03;;;-142.11;100.00
14800;BME280;7491;57.750;11.970;2022-12-07T05:47:06;77024.03;;;-142.11;100.00
14800;BME280;7491;57.750;11.970;2022-12-07T05:49:33;77009.75;;;-142.11;100.00
14800;BME280;7491;57.750;11.970;2022-12-07T05:52:00;77015.88;;;-142.11;100.00
14800;BME280;7491;57.750;11.970;2022-12-07T05:54:27;77019.94;;;-142.11;100.00
14800;BME280;7491;57.750;11.970;2022-12-07T05:56:54;77019.94;;;-142.11;100.00
14800;BME280;7491;57.750;11.970;2022-12-07T05:59:22;77042.38;;;-142.11;100.00
14800;BME280;7491;57.750;11.970;2022-12-07T06:01:48;77032.19;;;-142.11;100.00
14800;BME280;7491;57.750;11.970;2022-12-07T06:04:16;77028.09;;;-142.11;100.00
14800;BME280;7491;57.750;11.970;2022-12-07T06:06:42;77026.06;;;-142.11;100.00
14800;BME280;7491;57.750;11.970;2022-12-07T06:09:10;77030.13;;;-142.11;100.00
14800;BME280;7491;57.750;11.970;2022-12-07T06:11:36;77026.06;;;-142.11;100.00
14800;BME280;7491;57.750;11.970;2022-12-07T06:14:22;77036.25;;;-142.11;100.00
14800;BME280;7491;57.750;11.970;2022-12-07T06:16:49;77040.34;;;-142.11;100.00
14800;BME280;7491;57.750;11.970;2022-12-07T06:19:16;77032.19;;;-142.11;100.00
14800;BME280;7491;57.750;11.970;2022-12-07T06:21:43;77028.09;;;-142.11;100.00
14800;BME280;7491;57.750;11.970;2022-12-07T06:24:11;77026.06;;;-142.11;100.00
14800;BME280;7491;57.750;11.970;2022-12-07T06:26:38;77024.03;;;-142.11;100.00
14800;BME280;7491;57.750;11.970;2022-12-07T06:29:05;77017.91;;;-142.11;100.00
14800;BME280;7491;57.750;11.970;2022-12-07T06:31:33;77024.03;;;-142.11;100.00
14800;BME280;7491;57.750;11.970;2022-12-07T06:34:01;77017.91;;;-142.11;100.00
14800;BME280;7491;57.750;11.970;2022-12-07T06:36:28;77030.13;;;-142.11;100.00
14800;BME280;7491;57.750;11.970;2022-12-07T06:38:55;77009.75;;;-142.11;100.00
14800;BME280;7491;57.750;11.970;2022-12-07T06:41:22;77003.63;;;-142.11;100.00
14800;BME280;7491;57.750;11.970;2022-12-07T06:43:49;77015.88;;;-142.11;100.00
14800;BME280;7491;57.750;11.970;2022-12-07T06:46:16;77015.88;;;-142.11;100.00
14800;BME280;7491;57.750;11.970;2022-12-07T06:48:45;77015.88;;;-142.11;100.00
14800;BME280;7491;57.750;11.970;2022-12-07T06:51:11;77009.75;;;-142.11;100.00
14800;BME280;7491;57.750;11.970;2022-12-07T06:53:38;77011.78;;;-142.11;100.00
14800;BME280;7491;57.750;11.970;2022-12-07T06:56:05;77011.78;;;-142.11;100.00
14800;BME280;7491;57.750;11.970;2022-12-07T06:58:32;77028.09;;;-142.11;100.00
14800;BME280;7491;57.750;11.970;2022-12-07T07:00:59;77001.59;;;-142.11;100.00
14800;BME280;7491;57.750;11.970;2022-12-07T07:03:25;77021.97;;;-142.11;100.00
14800;BME280;7491;57.750;11.970;2022-12-07T07:05:53;77028.09;;;-142.11;100.00
14800;BME280;7491;57.750;11.970;2022-12-07T07:08:20;77026.06;;;-142.11;100.00
14800;BME280;7491;57.750;11.970;2022-12-07T07:10:47;77015.88;;;-142.11;100.00
14800;BME280;7491;57.750;11.970;2022-12-07T07:13:13;77019.94;;;-142.11;100.00
14800;BME280;7491;57.750;11.970;2022-12-07T07:15:40;77021.97;;;-142.11;100.00
14800;BME280;7491;57.750;11.970;2022-12-07T07:18:07;77021.97;;;-142.11;100.00
14800;BME280;7491;57.750;11.970;2022-12-07T07:20:34;77026.06;;;-142.11;100.00
14800;BME280;7491;57.750;11.970;2022-12-07T07:23:02;77021.97;;;-142.11;100.00
14800;BME280;7491;57.750;11.970;2022-12-07T07:25:29;77038.28;;;-142.11;100.00
14800;BME280;7491;57.750;11.970;2022-12-07T07:27:56;77038.28;;;-142.11;100.00
14800;BME280;7491;57.750;11.970;2022-12-07T07:30:23;77046.44;;;-142.11;100.00
14800;BME280;7491;57.750;11.970;2022-12-07T07:32:50;77060.72;;;-142.11;100.00
14800;BME280;7491;57.750;11.970;2022-12-07T07:35:17;77062.75;;;-142.11;100.00
14800;BME280;7491;57.750;11.970;2022-12-07T07:37:44;77058.69;;;-142.11;100.00
14800;BME280;7491;57.750;11.970;2022-12-07T07:40:12;77056.66;;;-142.11;100.00
14800;BME280;7491;57.750;11.970;2022-12-07T07:42:39;77048.50;;;-142.11;100.00
14800;BME280;7491;57.750;11.970;2022-12-07T07:45:07;77052.56;;;-142.11;100.00
14800;BME280;7491;57.750;11.970;2022-12-07T07:47:34;77054.59;;;-142.11;100.00
14800;BME280;7491;57.750;11.970;2022-12-07T07:50:01;77060.72;;;-142.11;100.00
14800;BME280;7491;57.750;11.970;2022-12-07T07:52:27;77060.72;;;-142.11;100.00
14800;BME280;7491;57.750;11.970;2022-12-07T07:54:54;77089.28;;;-142.11;100.00
14800;BME280;7491;57.750;11.970;2022-12-07T07:57:22;77089.28;;;-142.11;100.00
14800;BME280;7491;57.750;11.970;2022-12-07T07:59:49;77077.03;;;-142.11;100.00
14800;BME280;7491;57.750;11.970;2022-12-07T08:02:18;77081.13;;;-142.11;100.00
14800;BME280;7491;57.750;11.970;2022-12-07T08:04:45;77077.03;;;-142.11;100.00
14800;BME280;7491;57.750;11.970;2022-12-07T08:07:13;77064.81;;;-142.11;100.00
14800;BME280;7491;57.750;11.970;2022-12-07T08:09:40;77072.97;;;-142.11;100.00
14800;BME280;7491;57.750;11.970;2022-12-07T08:12:07;77068.88;;;-142.11;100.00
14800;BME280;7491;57.750;11.970;2022-12-07T08:14:35;77081.13;;;-142.11;100.00
14800;BME280;7491;57.750;11.970;2022-12-07T08:17:02;77077.03;;;-142.11;100.00
14800;BME280;7491;57.750;11.970;2022-12-07T08:19:29;77091.31;;;-142.11;100.00
14800;BME280;7491;57.750;11.970;2022-12-07T08:21:55;77083.16;;;-142.11;100.00
14800;BME280;7491;57.750;11.970;2022-12-07T08:24:22;77097.44;;;-142.11;100.00
14800;BME280;7491;57.750;11.970;2022-12-07T08:26:50;77089.28;;;-142.11;100.00
14800;BME280;7491;57.750;11.970;2022-12-07T08:29:18;77089.28;;;-142.11;100.00
14800;BME280;7491;57.750;11.970;2022-12-07T08:31:46;77085.19;;;-142.11;100.00
14800;BME280;7491;57.750;11.970;2022-12-07T08:34:13;77091.31;;;-142.11;100.00
14800;BME280;7491;57.750;11.970;2022-12-07T08:36:40;77099.47;;;-142.11;100.00
14800;BME280;7491;57.750;11.970;2022-12-07T08:39:10;77109.66;;;-142.11;100.00
14800;BME280;7491;57.750;11.970;2022-12-07T08:41:36;77111.69;;;-142.11;100.00
14800;BME280;7491;57.750;11.970;2022-12-07T08:44:04;77113.75;;;-142.11;100.00
14800;BME280;7491;57.750;11.970;2022-12-07T08:46:33;77119.84;;;-142.11;100.00
14800;BME280;7491;57.750;11.970;2022-12-07T08:49:06;77103.53;;;-142.11;100.00
14800;BME280;7491;57.750;11.970;2022-12-07T08:51:35;77101.50;;;-142.11;100.00
14800;BME280;7491;57.750;11.970;2022-12-07T08:54:04;77109.66;;;-142.11;100.00
14800;BME280;7491;57.750;11.970;2022-12-07T08:56:33;77105.59;;;-142.11;100.00
14800;BME280;7491;57.750;11.970;2022-12-07T08:59:00;77113.75;;;-142.11;100.00
14800;BME280;7491;57.750;11.970;2022-12-07T09:01:28;77099.47;;;-142.11;100.00
14800;BME280;7491;57.750;11.970;2022-12-07T09:03:55;77105.59;;;-142.11;100.00
14800;BME280;7491;57.750;11.970;2022-12-07T09:06:23;77107.63;;;-142.11;100.00
14800;BME280;7491;57.750;11.970;2022-12-07T09:08:54;77109.66;;;-142.11;100.00
14800;BME280;7491;57.750;11.970;2022-12-07T09:11:23;77109.66;;;-142.11;100.00
14800;BME280;7491;57.750;11.970;2022-12-07T09:13:50;77101.50;;;-142.11;100.00
14800;BME280;7491;57.750;11.970;2022-12-07T09:16:16;77103.53;;;-142.11;100.00
14800;BME280;7491;57.750;11.970;2022-12-07T09:18:43;77087.22;;;-142.11;100.00
14800;BME280;7491;57.750;11.970;2022-12-07T09:21:10;77093.34;;;-142.11;100.00
14800;BME280;7491;57.750;11.970;2022-12-07T09:23:38;77101.50;;;-142.11;100.00
14800;BME280;7491;57.750;11.970;2022-12-07T09:26:05;77089.28;;;-142.11;100.00
14800;BME280;7491;57.750;11.970;2022-12-07T09:28:32;77081.13;;;-142.11;100.00
14800;BME280;7491;57.750;11.970;2022-12-07T09:30:59;77099.47;;;-142.11;100.00
14800;BME280;7491;57.750;11.970;2022-12-07T09:33:25;77077.03;;;-142.11;100.00
14800;BME280;7491;57.750;11.970;2022-12-07T09:35:52;77062.75;;;-142.11;100.00
14800;BME280;7491;57.750;11.970;2022-12-07T09:38:19;77062.75;;;-142.11;100.00
14800;BME280;7491;57.750;11.970;2022-12-07T09:40:47;77058.69;;;-142.11;100.00
14800;BME280;7491;57.750;11.970;2022-12-07T09:43:15;77064.81;;;-142.11;100.00
14800;BME280;7491;57.750;11.970;2022-12-07T09:45:44;77068.88;;;-142.11;100.00
14800;BME280;7491;57.750;11.970;2022-12-07T09:48:17;77066.84;;;-142.11;100.00
14800;BME280;7491;57.750;11.970;2022-12-07T09:50:45;77081.13;;;-142.11;100.00
14800;BME280;7491;57.750;11.970;2022-12-07T09:53:15;77062.75;;;-142.11;100.00
14800;BME280;7491;57.750;11.970;2022-12-07T09:55:43;77056.66;;;-142.11;100.00
14800;BME280;7491;57.750;11.970;2022-12-07T09:58:16;77062.75;;;-142.11;100.00
14800;BME280;7491;57.750;11.970;2022-12-07T10:00:45;77054.59;;;-142.11;100.00
14800;BME280;7491;57.750;11.970;2022-12-07T10:03:12;77060.72;;;-142.11;100.00
14800;BME280;7491;57.750;11.970;2022-12-07T10:05:43;77058.69;;;-142.11;100.00
14800;BME280;7491;57.750;11.970;2022-12-07T10:08:12;77048.50;;;-142.11;100.00
14800;BME280;7491;57.750;11.970;2022-12-07T10:10:41;77054.59;;;-142.11;100.00
14800;BME280;7491;57.750;11.970;2022-12-07T10:13:10;77042.38;;;-142.11;100.00
14800;BME280;7491;57.750;11.970;2022-12-07T10:15:44;77050.53;;;-142.11;100.00
14800;BME280;7491;57.750;11.970;2022-12-07T10:18:18;77046.44;;;-142.11;100.00
14800;BME280;7491;57.750;11.970;2022-12-07T10:20:45;77064.81;;;-142.11;100.00
14800;BME280;7491;57.750;11.970;2022-12-07T10:23:15;77052.56;;;-142.11;100.00
14800;BME280;7491;57.750;11.970;2022-12-07T10:25:42;77054.59;;;-142.11;100.00
14800;BME280;7491;57.750;11.970;2022-12-07T10:28:16;77064.81;;;-142.11;100.00
14800;BME280;7491;57.750;11.970;2022-12-07T10:30:50;77066.84;;;-142.11;100.00
14800;BME280;7491;57.750;11.970;2022-12-07T10:33:31;77070.91;;;-142.11;100.00
14800;BME280;7491;57.750;11.970;2022-12-07T10:36:00;77077.03;;;-142.11;100.00
14800;BME280;7491;57.750;11.970;2022-12-07T10:38:28;77066.84;;;-142.11;100.00
14800;BME280;7491;57.750;11.970;2022-12-07T10:41:05;77089.28;;;-142.11;100.00
14800;BME280;7491;57.750;11.970;2022-12-07T10:43:33;77093.34;;;-142.11;100.00
14800;BME280;7491;57.750;11.970;2022-12-07T10:52:05;77123.94;;;-142.11;100.00
14800;BME280;7491;57.750;11.970;2022-12-07T10:54:44;77125.97;;;-142.11;100.00
14800;BME280;7491;57.750;11.970;2022-12-07T10:57:32;77128.00;;;-142.11;100.00
14800;BME280;7491;57.750;11.970;2022-12-07T11:00:11;77119.84;;;-142.11;100.00
14800;BME280;7491;57.750;11.970;2022-12-07T11:03:04;77123.94;;;-142.11;100.00
14800;BME280;7491;57.750;11.970;2022-12-07T11:05:39;77130.06;;;-142.11;100.00
14800;BME280;7491;57.750;11.970;2022-12-07T11:08:18;77142.28;;;-142.11;100.00
14800;BME280;7491;57.750;11.970;2022-12-07T11:10:53;77138.22;;;-142.11;100.00
14800;BME280;7491;57.750;11.970;2022-12-07T11:13:28;77142.28;;;-142.11;100.00
14800;BME280;7491;57.750;11.970;2022-12-07T11:18:59;77164.72;;;-142.11;100.00
14800;BME280;7491;57.750;11.970;2022-12-07T11:21:30;77176.94;;;-142.11;100.00
14800;BME280;7491;57.750;11.970;2022-12-07T11:24:05;77172.88;;;-142.11;100.00
14800;BME280;7491;57.750;11.970;2022-12-07T11:26:50;77185.09;;;-142.11;100.00
14800;BME280;7491;57.750;11.970;2022-12-07T11:29:49;77191.22;;;-142.11;100.00
14800;BME280;7491;57.750;11.970;2022-12-07T11:32:40;77203.47;;;-142.11;100.00
14800;BME280;7491;57.750;11.970;2022-12-07T11:35:22;77209.56;;;-142.11;100.00
14800;BME280;7491;57.750;11.970;2022-12-07T11:37:56;77207.53;;;-142.11;100.00
14800;BME280;7491;57.750;11.970;2022-12-07T11:40:26;77213.66;;;-142.11;100.00
14800;BME280;7491;57.750;11.970;2022-12-07T11:42:59;77217.72;;;-142.11;100.00
14800;BME280;7491;57.750;11.970;2022-12-07T11:45:29;77223.84;;;-142.11;100.00
14800;BME280;7491;57.750;11.970;2022-12-07T11:48:00;77242.19;;;-142.11;100.00
14800;BME280;7491;57.750;11.970;2022-12-07T11:50:34;77236.09;;;-142.11;100.00
14800;BME280;7491;57.750;11.970;2022-12-07T11:53:05;77225.88;;;-142.11;100.00
14800;BME280;7491;57.750;11.970;2022-12-07T11:55:42;77229.97;;;-142.11;100.00
14800;BME280;7491;57.750;11.970;2022-12-07T11:58:20;77221.81;;;-142.11;100.00
14800;BME280;7491;57.750;11.970;2022-12-07T12:00:51;77213.66;;;-142.11;100.00
14800;BME280;7491;57.750;11.970;2022-12-07T12:03:28;77236.09;;;-142.11;100.00
14800;BME280;7491;57.750;11.970;2022-12-07T12:05:58;77225.88;;;-142.11;100.00
14800;BME280;7491;57.750;11.970;2022-12-07T12:08:29;77227.94;;;-142.11;100.00
14800;BME280;7491;57.750;11.970;2022-12-07T12:11:00;77209.56;;;-142.11;100.00
14800;BME280;7491;57.750;11.970;2022-12-07T12:13:54;77221.81;;;-142.11;100.00
14800;BME280;7491;57.750;11.970;2022-12-07T12:16:44;77219.78;;;-142.11;100.00
14800;BME280;7491;57.750;11.970;2022-12-07T12:19:22;77213.66;;;-142.11;100.00
14800;BME280;7491;57.750;11.970;2022-12-07T12:21:57;77225.88;;;-142.11;100.00
14800;BME280;7491;57.750;11.970;2022-12-07T12:24:31;77213.66;;;-142.11;100.00
14800;BME280;7491;57.750;11.970;2022-12-07T12:27:03;77213.66;;;-142.11;100.00
14800;BME280;7491;57.750;11.970;2022-12-07T12:29:34;77221.81;;;-142.11;100.00
14800;BME280;7491;57.750;11.970;2022-12-07T12:32:11;77227.94;;;-142.11;100.00
14800;BME280;7491;57.750;11.970;2022-12-07T12:34:41;77223.84;;;-142.11;100.00
14800;BME280;7491;57.750;11.970;2022-12-07T12:37:44;77219.78;;;-142.11;100.00
14800;BME280;7491;57.750;11.970;2022-12-07T12:40:40;77221.81;;;-142.11;100.00
14800;BME280;7491;57.750;11.970;2022-12-07T12:46:37;77221.81;;;-142.11;100.00
14800;BME280;7491;57.750;11.970;2022-12-07T12:49:32;77217.72;;;-142.11;100.00
14800;BME280;7491;57.750;11.970;2022-12-07T12:52:00;77211.63;;;-142.11;100.00
14800;BME280;7491;57.750;11.970;2022-12-07T12:54:31;77205.50;;;-142.11;100.00
14800;BME280;7491;57.750;11.970;2022-12-07T12:57:03;77215.69;;;-142.11;100.00